KGGI

Grinnell Regional Airport

Grinnell, Iowa, USA
METAR KGGI 190915Z AUTO 11007KT 7SM SCT065 17/17 A2996 RMK AO2 T01710165
Observed Flight Rules
Sep-19 @ 09:15 UTC (16 minutes ago) Visual Flight Rules
Wind Visibility Clouds
110° at 7 knots 7 miles
  • Scattered at 6,500' AGL
Temperatures Readings
Current 17°C / 63°F
Dewpoint 17°C / 63°F
Humidity 100%
Altimeter 29.96" Hg
Pressure 1015 hPa
Elevation 307
METAR KGGI 190915Z AUTO 11007KT 7SM SCT065 17/17 A2996 RMK AO2 T01710165
Observed Flight Rules
Sep-19 @ 09:15 UTC
(16 minutes ago)
VFR
Wind Visibility
110° at 7 knots 7 miles
Clouds
  • Scattered at 6,500' AGL
Temperature Dewpoint
17°C / 63°F 17°C / 63°F
Humidity Altimeter Pressure
100% 29.96" Hg 1015 hPa